Onion Creek, California Weather observations

Data are for observation ending at time listed.
 Day   Time    Ave.   Ave.  Ave.  Vector   Max.   Stn.    Total    Solar   Ave.   Snow 
  of    of     Air    Rel.  Wind   Wind    Wind   Baro.  Precip.   Rad.    Soil   Depth
Year   Day     Temp.  Hum.  Speed  Dir.    Gust   Pres.                    Temp.       
2015   (PST)    F      %     mph   deg.    mph     mb.     in.     W/m2     F      in. 
---------------------------------------------------------------------------------------  
  56   16:40   55.1    20    1.5    96      3.8   833.0   23.27     220    33.7   999.0
  56   16:50   54.7    21    1.4   101      6.1   833.0   23.27     148    33.7   999.0
  56   17:00   53.6    24    1.8    37      6.9   833.0   23.25      58    33.8   999.0
  56   17:10   51.7    28    1.1    35      3.5   832.9   23.25      35    33.8   999.0
  56   17:20   50.1    29    1.5    79      5.2   832.9   23.25      17    33.9   999.0
  56   17:30   47.7    38    0.5   202      2.0   832.9   23.25      11    34.0   999.0
  56   17:40   45.1    44    0.9   131      2.6   832.8   23.27      11    34.0   999.0
  56   17:50   43.7    48    0.5    40      1.7   832.9   23.25       6    34.0   999.0
  56   18:00   42.6    50    0.4    60      1.6   832.8   23.25       2    34.1   999.0
  56   18:10   41.4    50    1.0    49      1.9   832.9   23.27       0    34.1   999.0
  56   18:20   40.8    47    1.1    40      2.1   832.5   23.25       0    34.1   999.0
  56   18:30   40.4    47    1.6    44      3.1   832.6   23.27       0    34.2   999.0
  56   18:40   40.0    46    1.7    32      2.8   832.7   23.25       0    34.2   999.0
  56   18:50   39.1    48    1.3    12      2.8   832.7   23.25       0    34.2   999.0
  56   19:00   38.2    50    0.3    54      1.7   832.7   23.25       0    34.2   999.0
  56   19:10   38.0    51    0.6    47      1.5   832.5   23.25       0    34.2   999.0
  56   19:20   37.3    52    0.6    36      1.6   832.3   23.27       0    34.2   999.0
  56   19:30   36.3    55    0.6    51      2.2   832.2   23.27       0    34.3   999.0
  56   19:40   36.1    55    1.4    35      2.2   832.5   23.27       0    34.3   999.0
  56   19:50   36.2    55    1.5    38      2.3   832.5   23.27       0    34.3   999.0
  56   20:00   35.7    57    0.5    39      1.1   832.2   23.27       0    34.3   999.0
  56   20:10   35.4    57    0.6    38      1.5   832.7   23.25       0    34.3   999.0
  56   20:20   35.4    57    0.7    32      1.5   833.1   23.27       0    34.3   999.0
  56   20:30   35.5    56    1.0    36      2.1   832.9   23.27       0    34.3   999.0
  56   20:40   35.0    58    1.1    37      2.2   832.9   23.25       0    34.3   999.0
  56   20:50   35.3    57    1.1    36      2.3   833.1   23.27       0    34.3   999.0
  56   21:00   35.3    57    1.2    37      3.0   833.0   23.25       0    34.3   999.0
  56   21:10   35.1    58    1.5    40      4.2   832.9   23.25       0    34.2   999.0
  56   21:20   35.4    57    0.9    31      3.4   832.7   23.27       0    34.2   999.0
  56   21:30   35.0    58    1.0    34      2.3   832.5   23.27       0    34.2   999.0
  56   21:40   34.5    60    1.2    38      2.4   832.6   23.25       0    34.2   999.0
  56   21:50   34.3    60    1.2    43      2.1   832.8   23.25       0    34.2   999.0
  56   22:00   34.2    60    1.2    28      2.6   832.5   23.27       0    34.2   999.0
  56   22:10   33.9    61    1.2    45      2.4   832.3   23.25       0    34.2   999.0
  56   22:20   34.1    61    0.6    39      1.9   832.1   23.27       0    34.2   999.0
  56   22:30   33.8    61    0.4    56      1.5   832.1   23.25       0    34.2   999.0
  56   22:40   33.4    63    0.6    38      1.3   832.0   23.27       0    34.2   999.0
  56   22:50   33.2    64    1.1    38      1.9   831.9   23.27       0    34.2   999.0
  56   23:00   33.5    62    1.6    39      2.8   832.0   23.27       0    34.2   999.0
  56   23:10   34.0    61    1.3    43      2.0   831.8   23.25       0    34.1   999.0
  56   23:20   33.6    63    0.6    46      1.5   831.7   23.25       0    34.1   999.0
  56   23:30   33.2    64    0.7    47      1.8   831.8   23.27       0    34.1   999.0
  56   23:40   33.4    63    1.6    44      3.0   831.8   23.25       0    34.1   999.0
  56   23:50   33.5    63    1.4    37      2.4   831.8   23.25       0    34.1   999.0
  57    0:00   33.4    64    0.9    31      2.0   831.7   23.25       0    34.1   999.0
  57    0:10   33.4    63    1.4    40      2.6   831.6   23.27       0    34.1   999.0
  57    0:20   33.4    63    1.2    50      2.4   831.5   23.27       0    34.1   999.0
  57    0:30   33.4    63    1.9    31      2.9   831.4   23.27       0    34.1   999.0
  57    0:40   33.5    63    1.0    41      2.3   831.2   23.27       0    34.0   999.0
  57    0:50   33.2    64    1.2    28      2.0   831.1   23.25       0    34.0   999.0
  57    1:00   32.9    64    1.0    24      1.8   831.0   23.27       0    34.0   999.0
  57    1:10   32.8    64    0.8   325      3.0   831.1   23.27       0    34.0   999.0
  57    1:20   32.1    66    0.8    80      2.7   831.2   23.25       0    34.0   999.0
  57    1:30   32.1    66    1.3    41      2.4   831.2   23.25       0    34.0   999.0
  57    1:40   32.2    65    1.4    25      2.6   831.1   23.27       0    34.0   999.0
  57    1:50   32.2    65    1.4    41      2.3   831.0   23.27       0    34.0   999.0
  57    2:00   32.5    64    1.2    53      2.1   830.9   23.27       0    34.0   999.0
  57    2:10   32.1    65    0.6    36      1.5   830.8   23.25       0    34.0   999.0
  57    2:20   32.2    65    1.9    29      3.3   830.5   23.25       0    34.0   999.0
  57    2:30   32.2    65    2.0    45      3.8   830.6   23.27       0    34.0   999.0
  57    2:40   32.6    64    1.7    45      2.9   830.6   23.30       0    34.0   999.0
  57    2:50   32.7    64    0.6    35      2.2   830.4   23.27       0    34.0   999.0
  57    3:00   31.9    66    0.5    11      1.6   830.3   23.27       0    34.0   999.0
  57    3:10   31.5    68    0.7    36      1.7   830.3   23.27       0    34.0   999.0
  57    3:20   31.4    70    1.3    43      3.2   830.2   23.27       0    34.0   999.0
  57    3:30   31.6    69    1.6    39      3.0   830.2   23.27       0    34.0   999.0
  57    3:40   31.8    70    1.1    32      2.6   830.4   23.27       0    33.9   999.0
  57    3:50   32.0    69    0.3    56      1.8   830.4   23.27       0    33.9   999.0
  57    4:00   31.7    69    0.4    21      1.7   830.2   23.27       0    33.9   999.0
  57    4:10   31.3    70    0.6    24      2.0   830.3   23.27       0    33.9   999.0
  57    4:20   31.2    69    0.9    61      3.1   830.2   23.27       0    33.9   999.0
  57    4:30   31.1    69    1.2   273      4.2   830.0   23.25       0    33.9   999.0
  57    4:40   31.0    69    1.0   215      3.2   829.8   23.27       0    33.9   999.0
  57    4:50   30.8    70    1.0   179      3.0   830.0   23.27       0    33.9   999.0
  57    5:00   31.2    69    1.7    56      4.5   830.0   23.27       0    33.9   999.0
  57    5:10   31.2    70    1.1    54      3.1   830.1   23.27       0    33.9   999.0
  57    5:20   31.3    70    1.6    98      3.0   830.1   23.27       0    33.9   999.0
  57    5:30   30.9    71    1.6   129      3.2   830.0   23.25       0    33.9   999.0
  57    5:40   31.7    70    1.7    70      5.8   829.9   23.27       0    33.9   999.0
  57    5:50   32.3    68    1.5    68      4.2   829.9   23.25       0    33.8   999.0
  57    6:00   32.2    69    1.6   187      3.8   829.8   23.27       0    33.8   999.0
  57    6:10   31.8    71    1.6    80      3.4   829.8   23.27       0    33.9   999.0
  57    6:20   31.6    73    0.6    56      2.0   829.9   23.27       0    33.8   999.0
  57    6:30   31.7    73    1.1    48      4.7   829.8   23.27       1    33.8   999.0
  57    6:40   31.5    74    1.2    27      3.9   829.8   23.27       2    33.8   999.0
  57    6:50   31.4    74    1.2    28      2.9   830.0   23.27       4    33.8   999.0
  57    7:00   31.4    74    1.1    35      3.1   830.2   23.25       7    33.8   999.0
  57    7:10   31.5    74    0.7    34      2.0   830.3   23.25       9    33.8   999.0
  57    7:20   31.6    74    0.3   143      2.2   830.2   23.27      11    33.8   999.0
  57    7:30   31.3    75    0.6    49      2.1   830.2   23.27      12    33.8   999.0
  57    7:40   31.7    74    1.2    54      2.8   830.1   23.27      13    33.8   999.0
  57    7:50   32.1    73    1.9    54      3.4   830.3   23.27      14    33.8   999.0
  57    8:00   33.0    72    1.5    78      3.8   830.5   23.27      16    33.8   999.0
  57    8:10   34.3    68    1.6    84      5.1   830.5   23.25      28    33.8   999.0
  57    8:20   36.6    63    2.5    76      7.7   830.4   23.27      94    33.8   999.0
  57    8:30   37.9    60    2.2   101      6.6   830.3   23.27     111    33.8   999.0
  57    8:40   39.4    55    3.4   107      8.8   830.4   23.30     160    33.8   999.0
  57    8:50   39.8    54    3.2    98      8.1   830.7   23.30     162    33.8   999.0
  57    9:00   40.0    54    1.9   110      6.4   830.7   23.30     169    33.9   999.0
  57    9:10   39.7    54    2.6   103      5.3   830.7   23.27     342    33.9   999.0
  57    9:20   39.5    54    3.1   111      6.9   830.6   23.27     513    33.9   999.0
  57    9:30   40.7    52    3.6    99      7.8   830.5   23.27     530    33.9   999.0
  57    9:40   41.2    51    3.5    92      7.9   830.3   23.27     557    33.9   999.0
  57    9:50   41.8    49    2.4    88      7.1   830.4   23.27     575    33.9   999.0
  57   10:00   42.4    48    3.3   116      8.2   830.5   23.27     614    33.9   999.0
  57   10:10   43.4    45    2.5   138      8.3   830.5   23.27     618    33.9   999.0
  57   10:20   43.0    46    3.9   107     11.2   830.5   23.27     630    34.0   999.0
  57   10:30   43.2    45    4.2   105     10.4   830.4   23.27     661    34.0   999.0
  57   10:40   43.8    43    3.5    73     11.5   830.2   23.27     678    34.0   999.0
  57   10:50   44.4    41    3.1    77     10.1   830.2   23.30     688    34.0   999.0
  57   11:00   45.2    40    2.3   104      5.8   830.2   23.30     684    34.0   999.0
  57   11:10   45.5    41    2.4   103      6.0   830.2   23.27     677    34.0   999.0
  57   11:20   45.7    40    3.0    71      7.4   830.2   23.27     715    34.1   999.0
  57   11:30   45.6    40    2.5   140      8.3   830.2   23.30     721    34.1   999.0
  57   11:40   46.1    41    2.4    66      7.5   830.0   23.27     746    34.1   999.0
  57   11:50   46.5    41    2.9    10      9.0   829.9   23.27     765    34.2   999.0
  57   12:00   46.8    39    2.2   349      7.9   829.6   23.27     766    34.2   999.0
  57   12:10   47.7    38    2.6   344      6.8   829.3   23.30     777    34.4   999.0
  57   12:20   47.3    36    3.2    63      8.9   829.3   23.27     752    34.7   999.0
  57   12:30   47.7    36    2.7   336     10.4   829.1   23.27     771    34.9   999.0
  57   12:40   48.4    35    2.8    75      8.6   829.0   23.27     768    35.2   999.0
  57   12:50   48.4    34    3.0    25      9.8   828.8   23.27     760    35.4   999.0
  57   13:00   48.6    33    2.4    11      5.7   828.7   23.27     758    35.7   999.0
  57   13:10   49.0    33    2.7   355     10.7   828.6   23.27     745    36.0   999.0
  57   13:20   48.8    31    2.3    24      6.1   828.4   23.27     738    36.3   999.0
  57   13:30   48.6    32    2.4    86     12.3   828.3   23.27     721    36.7   999.0
  57   13:40   48.7    30    2.8    18      7.7   828.1   23.27     718    37.0   999.0
  57   13:50   48.2    30    3.4   115      6.9   827.9   23.27     697    37.4   999.0
  57   14:00   48.6    28    1.9   104      6.4   827.8   23.27     667    37.8   999.0
  57   14:10   48.7    27    2.5   321      5.8   827.7   23.27     669    38.2   999.0
  57   14:20   49.0    28    2.7    66      6.5   827.7   23.27     651    38.6   999.0
  57   14:30   49.1    26    3.6    54      6.9   827.6   23.27     632    38.9   999.0
  57   14:40   49.6    27    2.2   354      8.0   827.4   23.27     608    39.2   999.0
  57   14:50   49.6    24    2.6    95      6.1   827.3   23.27     582    39.5   999.0
  57   15:00   49.9    26    2.4   307      6.2   827.3   23.27     555    39.6   999.0
  57   15:10   50.4    25    2.3   351      7.6   827.3   23.27     527    39.7   999.0
  57   15:20   49.6    22    3.3     7      8.8   827.3   23.25     498    39.8   999.0
  57   15:30   50.2    22    2.1   345      4.9   827.2   23.25     469    39.9   999.0
  57   15:40   50.4    21    2.0   297      5.6   827.1   23.25     440    39.9   999.0
  57   15:50   50.3    22    1.7   312      5.5   827.1   23.25     421    39.9   999.0
  57   16:00   49.8    21    2.1   309      4.4   827.0   23.27     350    39.9   999.0
  57   16:10   49.3    22    2.1   314      6.8   827.1   23.25     308    39.9   999.0
  57   16:20   49.4    22    2.1   354      4.5   827.1   23.25     305    39.8   999.0
  57   16:30   49.6    20    1.6   283      3.8   827.0   23.25     268    39.8   999.0

Return to Onion Creek graphs page.


Western Regional Climate Center,wrcc@dri.edu